createdAt,value
2018-06-21T00:00:06.328Z,101937.82
2018-06-21T00:01:43.632Z,101926.98
2018-06-21T00:03:20.510Z,101842.80
2018-06-21T00:04:56.864Z,101859.30
2018-06-21T00:06:33.999Z,101898.33
2018-06-21T00:08:12.011Z,101879.11
2018-06-21T00:09:48.627Z,101842.73
2018-06-21T00:11:26.624Z,101822.52
2018-06-21T00:13:03.085Z,101866.99
2018-06-21T00:14:39.547Z,101837.39
2018-06-21T00:16:16.928Z,101751.41
2018-06-21T00:17:54.248Z,101768.45
2018-06-21T00:19:30.859Z,101844.64
2018-06-21T00:21:07.228Z,101858.89
2018-06-21T00:22:43.830Z,101855.88
2018-06-21T00:24:21.277Z,101762.30
2018-06-21T00:25:57.687Z,101694.48
2018-06-21T00:27:34.003Z,101762.59
2018-06-21T00:29:10.780Z,101765.32
2018-06-21T00:30:49.369Z,101682.49
2018-06-21T00:32:27.326Z,101657.45
2018-06-21T00:34:04.596Z,101606.41
2018-06-21T00:35:43.069Z,101554.45
2018-06-21T00:37:36.190Z,101519.61
2018-06-21T00:39:13.359Z,101635.12
2018-06-21T00:40:49.999Z,101618.98
2018-06-21T00:42:27.888Z,101620.34
2018-06-21T00:44:04.332Z,101633.69
2018-06-21T00:45:41.063Z,101613.20
2018-06-21T00:47:17.465Z,101563.91
2018-06-21T00:48:53.877Z,101516.48
2018-06-21T00:50:30.162Z,101482.50
2018-06-21T00:52:06.547Z,101558.61
2018-06-21T00:53:42.888Z,101581.44
2018-06-21T00:56:22.757Z,101575.19
2018-06-21T00:57:59.022Z,101560.78
2018-06-21T00:59:35.330Z,101536.23
2018-06-21T01:01:13.849Z,101495.47
2018-06-21T01:02:50.247Z,101547.84
2018-06-21T01:04:26.688Z,101614.56
2018-06-21T01:06:03.486Z,101523.29
2018-06-21T01:07:40.145Z,101283.64
2018-06-21T01:09:16.540Z,101110.94
2018-06-21T01:10:53.011Z,100967.22
2018-06-21T01:12:30.166Z,100839.73
2018-06-21T01:14:06.540Z,100798.81
2018-06-21T01:17:50.925Z,100810.82
2018-06-21T01:19:30.654Z,100864.27
2018-06-21T01:21:08.516Z,100930.23
2018-06-21T01:22:44.920Z,100985.07
2018-06-21T01:24:24.333Z,101023.95
2018-06-21T01:26:01.134Z,101127.44
2018-06-21T01:27:38.392Z,101259.13
2018-06-21T01:29:14.684Z,101317.67
2018-06-21T01:30:51.269Z,101297.52
2018-06-21T01:32:27.720Z,101281.08
2018-06-21T01:34:04.259Z,101190.41
2018-06-21T01:35:42.539Z,101115.48
2018-06-21T01:37:29.502Z,101040.52
2018-06-21T01:39:27.956Z,101085.17
2018-06-21T01:41:04.351Z,101090.92
2018-06-21T01:42:41.988Z,101045.06
2018-06-21T01:44:18.287Z,101014.25
2018-06-21T01:45:55.077Z,101070.03
2018-06-21T01:47:31.384Z,101129.39
2018-06-21T01:49:08.002Z,101198.56
2018-06-21T01:50:44.662Z,101235.10
2018-06-21T01:52:21.222Z,101209.83
2018-06-21T01:53:57.564Z,101131.22
2018-06-21T01:55:34.285Z,101042.83
2018-06-21T01:57:11.593Z,101073.63
2018-06-21T01:58:47.877Z,101098.74
2018-06-21T02:00:25.958Z,101147.80
2018-06-21T02:02:03.321Z,101135.77
2018-06-21T02:03:40.620Z,101082.16
2018-06-21T02:05:16.945Z,101124.59
2018-06-21T02:06:53.223Z,101126.83
2018-06-21T02:08:30.688Z,101108.16
2018-06-21T02:10:07.496Z,101043.42
2018-06-21T02:11:43.812Z,100978.83
2018-06-21T02:13:20.213Z,100890.44
2018-06-21T02:14:58.379Z,100925.74
2018-06-21T02:16:34.944Z,100923.51
2018-06-21T02:18:11.210Z,100812.53
2018-06-21T02:19:47.481Z,100790.35
2018-06-21T02:21:26.917Z,100822.90
2018-06-21T02:23:03.409Z,100830.39
2018-06-21T02:24:40.280Z,100816.23
2018-06-21T02:26:16.595Z,100769.50
2018-06-21T02:27:53.269Z,100747.14
2018-06-21T02:29:29.630Z,100785.57
2018-06-21T02:31:06.372Z,100913.89
2018-06-21T02:32:42.902Z,100960.66
2018-06-21T02:34:19.594Z,101016.83
2018-06-21T02:35:55.929Z,101076.20
2018-06-21T02:37:32.240Z,101032.77
2018-06-21T02:39:10.405Z,100968.32
2018-06-21T02:40:48.046Z,100863.06
2018-06-21T02:42:24.561Z,100783.05
2018-06-21T02:44:00.830Z,100804.27
2018-06-21T02:45:37.816Z,100698.39
2018-06-21T02:47:14.540Z,100741.13
2018-06-21T02:48:52.490Z,100835.09
2018-06-21T02:50:31.501Z,100906.78
2018-06-21T02:52:09.240Z,100851.49
2018-06-21T02:53:46.086Z,100812.88
2018-06-21T02:55:22.983Z,100886.80
2018-06-21T02:56:59.871Z,100877.38
2018-06-21T02:58:37.324Z,100818.30
2018-06-21T03:00:15.103Z,100798.24
2018-06-21T03:01:51.865Z,100804.47
2018-06-21T03:03:28.402Z,100861.38
2018-06-21T03:05:04.769Z,100851.61
2018-06-21T03:06:42.380Z,100835.58
2018-06-21T03:08:18.697Z,100815.23
2018-06-21T03:10:01.498Z,100737.25
2018-06-21T03:11:38.883Z,100708.83
2018-06-21T03:13:16.303Z,100736.38
2018-06-21T03:14:55.512Z,100755.16
2018-06-21T03:16:32.841Z,100787.16
2018-06-21T03:18:09.236Z,100793.46
2018-06-21T03:19:47.193Z,100784.53
2018-06-21T03:21:24.837Z,100658.06
2018-06-21T03:23:00.999Z,100557.56
2018-06-21T03:24:39.600Z,100477.07
2018-06-21T03:26:17.858Z,100418.33
2018-06-21T03:27:54.136Z,100451.72
2018-06-21T03:29:30.432Z,100554.94
2018-06-21T03:31:07.038Z,100526.07
2018-06-21T03:32:44.400Z,100601.22
2018-06-21T03:34:20.745Z,100594.52
2018-06-21T03:35:57.662Z,100605.27
2018-06-21T03:37:34.007Z,100671.61
2018-06-21T03:39:10.652Z,100727.72
2018-06-21T03:40:47.738Z,100805.66
2018-06-21T03:42:24.290Z,100885.39
2018-06-21T03:44:00.544Z,100903.73
2018-06-21T03:45:37.171Z,100841.34
2018-06-21T03:47:13.479Z,100706.88
2018-06-21T03:48:49.700Z,100753.67
2018-06-21T03:50:26.051Z,100825.44
2018-06-21T03:52:02.758Z,100911.80
2018-06-21T03:53:39.021Z,100997.16
2018-06-21T03:55:15.316Z,101078.21
2018-06-21T03:56:51.541Z,101030.13
2018-06-21T03:58:28.280Z,101160.89
2018-06-21T04:00:04.761Z,101229.66
2018-06-21T04:01:41.281Z,101252.01
2018-06-21T04:03:17.555Z,101245.80
2018-06-21T04:04:54.806Z,101273.51
2018-06-21T04:06:31.112Z,101283.30
2018-06-21T04:08:10.592Z,101290.50
2018-06-21T04:09:47.564Z,101309.66
2018-06-21T04:11:24.316Z,101317.80
2018-06-21T04:13:00.547Z,101238.28
2018-06-21T04:14:36.921Z,101131.16
2018-06-21T04:16:13.735Z,101203.51
2018-06-21T04:17:51.316Z,101156.59
2018-06-21T04:19:29.409Z,101100.40
2018-06-21T04:21:06.756Z,100977.16
2018-06-21T04:22:43.008Z,100882.27
2018-06-21T04:24:19.741Z,100869.45
2018-06-21T04:25:56.057Z,100695.70
2018-06-21T04:27:34.501Z,100658.30
2018-06-21T04:29:11.020Z,100614.72
2018-06-21T04:30:50.755Z,100586.64
2018-06-21T04:32:27.139Z,100576.48
2018-06-21T04:34:03.478Z,100549.77
2018-06-21T04:35:39.755Z,100483.05
2018-06-21T04:37:16.621Z,100398.97
2018-06-21T04:38:53.112Z,100278.19
2018-06-21T04:40:29.348Z,100227.13
2018-06-21T04:42:05.711Z,100364.72
2018-06-21T04:43:42.544Z,100369.25
2018-06-21T04:45:19.501Z,100315.13
2018-06-21T04:46:56.721Z,100412.77
2018-06-21T04:48:34.487Z,100461.75
2018-06-21T04:50:14.807Z,100439.11
2018-06-21T04:51:52.222Z,100378.16
2018-06-21T04:53:31.696Z,100437.36
2018-06-21T04:55:07.991Z,100351.95
2018-06-21T04:56:45.691Z,100466.17
2018-06-21T04:58:22.315Z,100447.91
2018-06-21T04:59:58.603Z,100416.83
2018-06-21T05:01:36.240Z,100371.48
2018-06-21T05:04:49.998Z,100210.79
2018-06-21T05:06:27.249Z,100181.42
2018-06-21T05:08:05.816Z,100229.94
2018-06-21T05:09:43.215Z,100251.72
2018-06-21T05:11:19.970Z,100283.80
2018-06-21T05:12:56.780Z,100237.02
2018-06-21T05:14:34.464Z,100210.88
2018-06-21T05:16:11.060Z,100172.25
2018-06-21T05:17:48.168Z,100211.27
2018-06-21T05:19:25.493Z,100209.91
2018-06-21T05:21:02.334Z,100216.67
2018-06-21T05:22:39.055Z,100223.74
2018-06-21T05:24:15.463Z,100246.47
2018-06-21T05:25:51.816Z,100249.63
2018-06-21T05:27:28.003Z,100250.98
2018-06-21T05:29:04.869Z,100252.33
2018-06-21T05:30:41.268Z,100275.45
2018-06-21T05:32:17.480Z,100219.49
2018-06-21T05:33:54.686Z,100205.66
2018-06-21T05:35:31.281Z,99999.91
2018-06-21T05:37:08.249Z,100112.55
2018-06-21T05:38:44.630Z,100147.50
2018-06-21T05:40:33.155Z,100209.24
2018-06-21T05:42:11.014Z,100112.16
2018-06-21T05:43:47.468Z,100119.30
2018-06-21T05:45:26.247Z,100029.64
2018-06-21T05:47:02.533Z,100065.14
2018-06-21T05:48:39.146Z,100067.36
2018-06-21T05:50:15.524Z,100048.73
2018-06-21T05:51:53.351Z,99977.80
2018-06-21T05:53:29.595Z,100063.03
2018-06-21T05:55:06.240Z,100098.06
2018-06-21T05:56:44.559Z,99955.23
2018-06-21T05:58:20.825Z,99827.20
2018-06-21T05:59:57.749Z,99940.63
2018-06-21T06:01:37.661Z,100020.05
2018-06-21T06:03:16.031Z,100002.30
2018-06-21T06:04:53.215Z,99998.45
2018-06-21T06:06:31.487Z,99850.75
2018-06-21T06:08:11.291Z,99893.27
2018-06-21T06:09:50.655Z,99951.34
2018-06-21T06:11:27.506Z,99957.14
2018-06-21T06:13:04.007Z,99941.67
2018-06-21T06:14:41.688Z,99988.69
2018-06-21T06:16:18.251Z,100002.86
2018-06-21T06:17:54.495Z,100078.73
2018-06-21T06:19:32.596Z,100154.27
2018-06-21T06:21:10.240Z,100178.22
2018-06-21T06:22:47.283Z,100004.33
2018-06-21T06:24:23.915Z,100001.63
2018-06-21T06:26:00.323Z,99926.25
2018-06-21T06:27:38.996Z,99843.52
2018-06-21T06:29:16.469Z,99911.77
2018-06-21T06:30:53.022Z,100006.64
2018-06-21T06:32:29.269Z,100098.43
2018-06-21T06:34:06.064Z,100102.40
2018-06-21T06:35:43.480Z,100102.48
2018-06-21T06:37:19.858Z,100131.36
2018-06-21T06:39:01.542Z,100126.03
2018-06-21T06:40:38.263Z,100065.23
2018-06-21T06:42:16.472Z,100080.76
2018-06-21T06:43:52.795Z,100142.08
2018-06-21T06:45:29.426Z,100199.73
2018-06-21T06:47:09.400Z,100151.81
2018-06-21T06:48:46.203Z,100124.41
2018-06-21T06:50:22.637Z,100058.25
2018-06-21T06:51:58.920Z,100031.73
2018-06-21T06:53:35.564Z,100018.88
2018-06-21T06:55:11.928Z,100026.41
2018-06-21T06:56:48.675Z,99985.66
2018-06-21T06:58:27.183Z,100012.89
2018-06-21T07:00:08.239Z,100016.37
2018-06-21T07:01:45.362Z,100060.20
2018-06-21T07:03:21.849Z,100082.00
2018-06-21T07:05:00.390Z,100055.36
2018-06-21T07:06:38.964Z,100077.55
2018-06-21T07:08:17.660Z,100101.50
2018-06-21T07:09:54.556Z,100096.66
2018-06-21T07:11:30.840Z,100064.25
2018-06-21T07:13:07.071Z,100070.13
2018-06-21T07:14:45.733Z,100064.89
2018-06-21T07:16:22.388Z,100100.34
2018-06-21T07:17:59.292Z,100157.58
2018-06-21T07:21:28.540Z,100131.41
2018-06-21T07:23:05.498Z,100196.71
2018-06-21T07:24:43.631Z,100223.37
2018-06-21T07:26:20.651Z,100233.63
2018-06-21T07:27:57.515Z,100294.00
2018-06-21T07:29:35.491Z,100353.20
2018-06-21T07:31:17.681Z,100338.45
2018-06-21T07:32:54.535Z,100325.61
2018-06-21T07:34:33.191Z,100302.98
2018-06-21T07:36:09.471Z,100311.41
2018-06-21T07:37:46.887Z,100348.39
2018-06-21T07:39:23.965Z,100368.46
2018-06-21T07:41:00.822Z,100491.59
2018-06-21T07:42:41.432Z,100570.36
2018-06-21T07:44:18.780Z,100544.52
2018-06-21T07:45:57.073Z,100478.22
2018-06-21T07:47:33.363Z,100407.13
2018-06-21T07:49:12.575Z,100360.08
2018-06-21T07:50:49.303Z,100310.30
2018-06-21T07:52:25.785Z,100166.36
2018-06-21T07:54:03.660Z,100043.55
2018-06-21T07:55:39.965Z,99924.27
2018-06-21T07:57:16.653Z,99795.28
2018-06-21T07:58:58.639Z,99681.95
2018-06-21T08:00:37.748Z,99606.36
2018-06-21T08:02:14.021Z,99546.22
2018-06-21T08:03:52.064Z,99543.13
2018-06-21T08:05:28.288Z,99575.95
2018-06-21T08:07:05.527Z,99599.34
2018-06-21T08:08:41.819Z,99660.46
2018-06-21T08:10:23.409Z,99669.64
2018-06-21T08:11:59.716Z,99682.52
2018-06-21T08:13:40.575Z,99683.00
2018-06-21T08:15:20.269Z,99697.17
2018-06-21T08:16:57.448Z,99740.16
2018-06-21T08:18:35.926Z,99789.78
2018-06-21T08:20:12.320Z,99832.28
2018-06-21T08:21:48.648Z,99789.78
2018-06-21T08:23:26.394Z,99791.12
2018-06-21T08:25:02.688Z,99806.16
2018-06-21T08:26:40.587Z,99777.84
2018-06-21T08:28:17.132Z,99779.20
2018-06-21T08:29:54.486Z,99781.89
2018-06-21T08:31:31.054Z,99824.39
2018-06-21T08:33:08.107Z,99819.47
2018-06-21T08:34:45.851Z,99836.32
2018-06-21T08:36:23.056Z,99910.88
2018-06-21T08:38:00.026Z,100004.82
2018-06-21T08:39:37.135Z,100076.74
2018-06-21T08:41:13.427Z,100112.55
2018-06-21T08:42:51.606Z,100126.38
2018-06-21T08:44:30.508Z,100153.02
2018-06-21T08:46:09.464Z,100121.14
2018-06-21T08:47:45.721Z,100060.34
2018-06-21T08:49:24.229Z,100018.20
2018-06-21T08:51:07.000Z,99945.47
2018-06-21T08:52:43.245Z,99922.50
2018-06-21T08:54:25.477Z,99901.13
2018-06-21T08:56:03.049Z,99890.14
2018-06-21T08:57:39.443Z,99945.59
2018-06-21T08:59:16.740Z,99965.55
2018-06-21T09:00:54.530Z,100046.58
2018-06-21T09:02:32.847Z,100178.88
2018-06-21T09:04:14.179Z,100334.43
2018-06-21T09:05:51.434Z,100381.51
2018-06-21T09:07:33.527Z,100399.69
2018-06-21T09:09:17.579Z,100405.05
2018-06-21T09:10:53.867Z,100250.84
2018-06-21T09:12:36.964Z,100136.78
2018-06-21T09:14:15.233Z,100063.57
2018-06-21T09:15:52.847Z,100009.04
2018-06-21T09:17:30.852Z,100000.19
2018-06-21T09:19:10.297Z,100063.09
2018-06-21T09:20:48.671Z,100202.05
2018-06-21T09:22:25.521Z,100265.54
2018-06-21T09:24:01.777Z,100294.44
2018-06-21T09:25:38.970Z,100311.02
2018-06-21T09:27:16.528Z,100329.58
2018-06-21T09:28:52.834Z,100418.48
2018-06-21T09:30:31.958Z,100492.36
2018-06-21T09:32:09.481Z,100434.52
2018-06-21T09:33:50.772Z,100367.78
2018-06-21T09:35:28.324Z,100244.75
2018-06-21T09:37:05.908Z,100157.31
2018-06-21T09:38:47.904Z,100072.06
2018-06-21T09:40:29.454Z,99970.07
2018-06-21T09:42:11.651Z,99913.07
2018-06-21T09:44:03.821Z,99869.48
2018-06-21T09:45:36.308Z,99804.82
2018-06-21T09:47:18.287Z,99706.91
2018-06-21T09:48:56.211Z,99706.52
2018-06-21T09:50:35.313Z,99678.58
2018-06-21T09:52:15.247Z,99761.46
2018-06-21T09:53:55.499Z,99818.50
2018-06-21T09:55:38.562Z,99814.92
2018-06-21T09:59:04.303Z,100031.70
2018-06-21T10:00:51.795Z,100152.39
2018-06-21T10:02:29.845Z,100218.48
2018-06-21T10:04:08.363Z,100225.61
2018-06-21T10:05:45.066Z,100175.50
2018-06-21T10:07:22.060Z,100189.30
2018-06-21T10:09:00.235Z,100041.55
2018-06-21T10:10:36.576Z,99870.92
2018-06-21T10:12:14.714Z,99715.34
2018-06-21T10:13:51.608Z,99664.88
2018-06-21T10:15:28.235Z,99640.52
2018-06-21T10:17:09.453Z,99675.88
2018-06-21T10:18:48.831Z,99738.80
2018-06-21T10:20:25.941Z,99854.84
2018-06-21T10:22:02.235Z,99948.84
2018-06-21T10:23:41.187Z,100026.42
2018-06-21T10:25:19.257Z,100076.91
2018-06-21T10:27:07.831Z,100123.55
2018-06-21T10:28:48.532Z,100123.44
2018-06-21T10:30:27.419Z,100227.27
2018-06-21T10:32:13.740Z,100358.00
2018-06-21T10:33:51.812Z,100338.87
2018-06-21T10:35:29.704Z,100337.53
2018-06-21T10:37:06.732Z,100207.84
2018-06-21T10:38:46.569Z,100081.27
2018-06-21T10:40:26.250Z,100013.48
2018-06-21T10:42:03.832Z,99958.97
2018-06-21T10:43:42.176Z,99929.25
2018-06-21T10:45:20.316Z,99884.91
2018-06-21T10:46:57.033Z,99814.45
2018-06-21T10:48:33.962Z,99822.45
2018-06-21T10:50:12.555Z,99933.22
2018-06-21T10:51:50.211Z,100025.43
2018-06-21T10:53:26.479Z,100084.36
2018-06-21T10:55:05.363Z,100161.12
2018-06-21T10:56:43.229Z,100204.59
2018-06-21T10:58:23.826Z,100258.30
2018-06-21T11:00:03.592Z,100324.17
2018-06-21T11:01:49.823Z,100388.58
2018-06-21T11:03:29.236Z,100458.34
2018-06-21T11:05:06.566Z,100519.27
2018-06-21T11:06:46.027Z,100523.73
2018-06-21T11:08:28.327Z,100503.31
2018-06-21T11:10:04.872Z,100476.05
2018-06-21T11:11:42.906Z,100334.34
2018-06-21T11:13:22.192Z,100272.58
2018-06-21T11:15:01.049Z,100273.84
2018-06-21T11:16:40.216Z,100198.31
2018-06-21T11:18:17.820Z,100245.35
2018-06-21T11:19:57.730Z,100205.94
2018-06-21T11:21:35.278Z,100123.84
2018-06-21T11:23:20.835Z,100152.23
2018-06-21T11:24:59.207Z,100145.08
2018-06-21T11:26:37.143Z,100157.08
2018-06-21T11:28:15.026Z,100149.92
2018-06-21T11:29:54.464Z,100204.98
2018-06-21T11:31:33.190Z,100281.77
2018-06-21T11:33:11.285Z,100203.99
2018-06-21T11:34:48.509Z,100136.19
2018-06-21T11:36:28.281Z,100105.48
2018-06-21T11:38:05.552Z,100041.18
2018-06-21T11:39:42.509Z,100029.63
2018-06-21T11:41:29.309Z,99984.34
2018-06-21T11:43:05.804Z,99921.86
2018-06-21T11:44:51.589Z,99980.78
2018-06-21T11:46:29.718Z,99934.67
2018-06-21T11:48:07.551Z,99875.30
2018-06-21T11:49:44.580Z,99844.72
2018-06-21T11:51:25.608Z,99847.81
2018-06-21T11:53:04.516Z,99946.66
2018-06-21T11:54:40.794Z,100011.29
2018-06-21T11:56:17.533Z,100101.27
2018-06-21T11:57:54.532Z,100223.34
2018-06-21T11:59:31.891Z,100288.67
2018-06-21T12:01:12.440Z,100288.08
2018-06-21T12:02:50.594Z,100175.34
2018-06-21T12:04:27.605Z,100103.41
2018-06-21T12:06:07.989Z,99900.83
2018-06-21T12:07:45.146Z,99860.94
2018-06-21T12:09:21.489Z,99934.51
2018-06-21T12:10:58.816Z,100034.58
2018-06-21T12:12:37.407Z,100043.47
2018-06-21T12:14:14.666Z,100027.43
2018-06-21T12:15:52.468Z,99964.97
2018-06-21T12:17:29.321Z,99917.05
2018-06-21T12:19:07.111Z,99832.38
2018-06-21T12:20:43.498Z,99845.70
2018-06-21T12:22:20.370Z,99929.86
2018-06-21T12:23:58.564Z,99964.97
2018-06-21T12:25:38.405Z,99987.95
2018-06-21T12:27:15.262Z,100061.92
2018-06-21T12:28:55.208Z,100073.48
2018-06-21T12:30:33.201Z,100078.80
2018-06-21T12:32:18.456Z,100062.28
2018-06-21T12:33:56.489Z,100060.93
2018-06-21T12:35:36.978Z,100082.28
2018-06-21T12:37:15.231Z,100114.22
2018-06-21T12:38:52.389Z,100099.56
2018-06-21T12:40:28.841Z,100025.04
2018-06-21T12:42:08.063Z,99896.80
2018-06-21T12:43:45.600Z,99798.95
2018-06-21T12:45:22.173Z,99753.28
2018-06-21T12:47:05.300Z,99731.12
2018-06-21T12:48:41.508Z,99692.70
2018-06-21T12:50:17.810Z,99683.34
2018-06-21T12:51:55.371Z,99721.77
2018-06-21T12:53:34.679Z,99807.27
2018-06-21T12:55:13.536Z,99877.25
2018-06-21T12:56:50.869Z,99922.86
2018-06-21T12:58:27.534Z,99900.17
2018-06-21T13:00:04.893Z,99876.65
2018-06-21T13:01:42.341Z,99869.16
2018-06-21T13:03:18.579Z,99835.97
2018-06-21T13:04:58.129Z,99870.02
2018-06-21T13:06:37.064Z,99836.36
2018-06-21T13:08:16.638Z,99844.84
2018-06-21T13:10:12.490Z,99915.23
2018-06-21T13:13:06.991Z,99951.89
2018-06-21T13:14:45.778Z,99828.74
2018-06-21T13:16:23.396Z,99754.25
2018-06-21T13:18:02.439Z,99726.00
2018-06-21T13:19:38.722Z,99762.73
2018-06-21T13:21:16.575Z,99783.55
2018-06-21T13:22:55.281Z,99755.88
2018-06-21T13:24:34.630Z,99764.48
2018-06-21T13:26:14.441Z,99727.27
2018-06-21T13:27:54.494Z,99744.02
2018-06-21T13:29:33.937Z,99817.08
2018-06-21T13:31:13.498Z,99886.98
2018-06-21T13:32:49.976Z,99851.61
2018-06-21T13:34:30.419Z,99774.97
2018-06-21T13:36:07.642Z,99679.79
2018-06-21T13:37:46.492Z,99576.63
2018-06-21T13:39:22.816Z,99467.86
2018-06-21T13:41:05.050Z,99431.23
2018-06-21T13:42:43.365Z,99427.58
2018-06-21T13:44:23.532Z,99468.64
2018-06-21T13:46:01.039Z,99469.98
2018-06-21T13:47:41.344Z,99556.23
2018-06-21T13:49:20.934Z,99684.49
2018-06-21T13:50:58.256Z,99742.02
2018-06-21T13:52:34.611Z,99688.36
2018-06-21T13:54:11.519Z,99688.84
2018-06-21T13:55:48.311Z,99667.53
2018-06-21T13:57:27.873Z,99633.16
2018-06-21T13:59:06.499Z,99654.83
2018-06-21T14:00:50.538Z,99683.93
2018-06-21T14:02:29.584Z,99657.83
2018-06-21T14:04:07.630Z,99571.02
2018-06-21T14:05:45.569Z,99515.80
2018-06-21T14:07:23.255Z,99522.80
2018-06-21T14:09:10.296Z,99495.38
2018-06-21T14:10:49.506Z,99543.11
2018-06-21T14:12:28.652Z,99595.28
2018-06-21T14:14:16.424Z,99617.38
2018-06-21T14:15:59.023Z,99593.46
2018-06-21T14:17:37.274Z,99554.97
2018-06-21T14:19:15.125Z,99507.72
2018-06-21T14:20:52.205Z,99475.95
2018-06-21T14:22:34.501Z,99424.58
2018-06-21T14:24:13.641Z,99367.19
2018-06-21T14:25:50.331Z,99351.20
2018-06-21T14:27:27.451Z,99337.95
2018-06-21T14:29:05.338Z,99337.48
2018-06-21T14:30:42.758Z,99268.05
2018-06-21T14:33:54.699Z,99360.45
2018-06-21T14:35:32.518Z,99385.91
2018-06-21T14:37:08.726Z,99402.85
2018-06-21T14:38:48.493Z,99428.44
2018-06-21T14:40:27.540Z,99432.36
2018-06-21T14:42:06.394Z,99412.45
2018-06-21T14:43:45.587Z,99391.59
2018-06-21T14:45:22.328Z,99403.59
2018-06-21T14:46:59.542Z,99429.09
2018-06-21T14:48:35.757Z,99453.91
2018-06-21T14:50:14.232Z,99432.75
2018-06-21T14:51:51.705Z,99407.06
2018-06-21T14:53:28.616Z,99354.94
2018-06-21T14:55:05.495Z,99325.23
2018-06-21T14:56:45.621Z,99321.67
2018-06-21T14:58:23.669Z,99333.61
2018-06-21T15:00:01.885Z,99349.94
2018-06-21T15:01:41.824Z,99340.25
2018-06-21T15:03:18.897Z,99379.95
2018-06-21T15:04:56.266Z,99433.05
2018-06-21T15:06:36.564Z,99471.03
2018-06-21T15:08:15.834Z,99470.07
2018-06-21T15:09:57.532Z,99454.08
2018-06-21T15:11:34.992Z,99499.72
2018-06-21T15:13:12.683Z,99530.98
2018-06-21T15:14:48.967Z,99510.77
2018-06-21T15:16:26.085Z,99367.44
2018-06-21T15:18:03.879Z,99294.66
2018-06-21T15:19:40.742Z,99258.06
2018-06-21T15:21:20.287Z,99254.89
2018-06-21T15:22:56.587Z,99254.02
2018-06-21T15:24:35.659Z,99205.28
2018-06-21T15:26:12.575Z,99229.23
2018-06-21T15:27:49.911Z,99260.53
2018-06-21T15:29:28.824Z,99179.73
2018-06-21T15:31:07.855Z,99199.99
2018-06-21T15:32:45.553Z,99241.52
2018-06-21T15:34:22.424Z,99204.41
2018-06-21T15:35:59.530Z,99233.66
2018-06-21T15:37:40.500Z,99156.17
2018-06-21T15:39:25.017Z,99161.16
2018-06-21T15:41:01.424Z,99135.91
2018-06-21T15:42:38.627Z,99158.86
2018-06-21T15:44:20.641Z,99181.81
2018-06-21T15:45:57.192Z,99248.90
2018-06-21T15:47:34.319Z,99322.63
2018-06-21T15:49:11.403Z,99372.14
2018-06-21T15:50:50.602Z,99442.83
2018-06-21T15:52:28.318Z,99362.23
2018-06-21T15:54:08.433Z,99256.41
2018-06-21T15:55:47.650Z,99126.97
2018-06-21T15:57:26.223Z,99063.91
2018-06-21T15:59:04.338Z,99070.15
2018-06-21T16:00:42.651Z,99112.00
2018-06-21T16:02:21.281Z,99146.87
2018-06-21T16:03:58.238Z,99112.48
2018-06-21T16:05:36.833Z,99100.08
2018-06-21T16:07:20.649Z,99031.27
2018-06-21T16:08:56.894Z,99029.53
2018-06-21T16:10:34.383Z,99014.48
2018-06-21T16:12:10.672Z,99049.30
2018-06-21T16:13:46.897Z,99024.05
2018-06-21T16:15:27.632Z,99012.66
2018-06-21T16:17:05.486Z,99077.14
2018-06-21T16:18:41.654Z,99153.77
2018-06-21T16:20:19.789Z,99218.16
2018-06-21T16:21:57.649Z,99265.04
2018-06-21T16:23:34.566Z,99319.36
2018-06-21T16:25:11.525Z,99272.45
2018-06-21T16:26:48.424Z,99303.77
2018-06-21T16:28:28.267Z,99252.66
2018-06-21T16:30:05.194Z,99201.83
2018-06-21T16:31:44.458Z,99180.19
2018-06-21T16:33:21.343Z,99138.19
2018-06-21T16:34:59.889Z,99167.01
2018-06-21T16:36:36.303Z,99247.37
2018-06-21T16:38:12.541Z,99292.73
2018-06-21T16:39:49.543Z,99291.86
2018-06-21T16:41:28.669Z,99291.00
2018-06-21T16:43:05.456Z,99256.48
2018-06-21T16:44:56.540Z,99199.49
2018-06-21T16:46:34.996Z,99240.16
2018-06-21T16:48:14.219Z,99317.44
2018-06-21T16:49:52.163Z,99310.31
2018-06-21T16:51:33.838Z,99294.94
2018-06-21T16:53:15.251Z,99256.09
2018-06-21T16:54:52.114Z,99237.94
2018-06-21T16:56:28.501Z,99211.42
2018-06-21T16:58:06.513Z,99138.67
2018-06-21T16:59:45.470Z,99105.92
2018-06-21T17:01:28.821Z,99070.13
2018-06-21T17:03:05.536Z,98996.13
2018-06-21T17:04:43.399Z,98978.96
2018-06-21T17:06:20.200Z,99009.73
2018-06-21T17:08:02.334Z,99052.09
2018-06-21T17:09:43.763Z,99108.52
2018-06-21T17:11:20.027Z,99167.20
2018-06-21T17:13:03.275Z,99162.78
2018-06-21T17:14:41.085Z,99159.61
2018-06-21T17:16:18.420Z,99192.41
2018-06-21T17:17:57.213Z,99171.50
2018-06-21T17:19:34.886Z,99101.78
2018-06-21T17:21:12.398Z,99075.38
2018-06-21T17:22:49.270Z,99117.36
2018-06-21T17:24:26.462Z,99132.72
2018-06-21T17:26:04.339Z,99202.00
2018-06-21T17:27:49.984Z,99283.69
2018-06-21T17:29:26.417Z,99249.17
2018-06-21T17:31:02.420Z,99228.42
2018-06-21T17:32:39.577Z,99258.51
2018-06-21T17:34:18.851Z,99309.61
2018-06-21T17:35:56.521Z,99297.80
2018-06-21T17:37:33.853Z,99290.69
2018-06-21T17:39:12.491Z,99159.52
2018-06-21T17:40:48.760Z,99085.48
2018-06-21T17:42:26.192Z,99046.70
2018-06-21T17:44:04.738Z,99066.57
2018-06-21T17:45:41.021Z,99090.63
2018-06-21T17:47:20.777Z,99104.86
2018-06-21T17:48:57.682Z,99106.59
2018-06-21T17:50:37.422Z,99046.58
2018-06-21T17:52:14.749Z,98966.38
2018-06-21T17:53:52.992Z,98906.41
2018-06-21T17:55:32.946Z,98897.80
2018-06-21T17:57:10.587Z,98924.91
2018-06-21T17:58:46.924Z,98975.19
2018-06-21T18:00:27.898Z,99024.60
2018-06-21T18:02:04.173Z,99052.25
2018-06-21T18:03:41.552Z,99023.25
2018-06-21T18:05:18.841Z,98981.81
2018-06-21T18:06:56.437Z,98958.41
2018-06-21T18:08:34.598Z,98986.62
2018-06-21T18:10:13.652Z,98997.63
2018-06-21T18:11:50.918Z,98901.13
2018-06-21T18:13:28.710Z,98815.71
2018-06-21T18:15:11.321Z,98799.39
2018-06-21T18:16:51.307Z,98793.64
2018-06-21T18:18:34.841Z,98802.47
2018-06-21T18:20:12.176Z,98816.58
2018-06-21T18:21:53.531Z,98837.66
2018-06-21T18:23:32.639Z,98809.47
2018-06-21T18:25:09.040Z,98799.78
2018-06-21T18:26:45.409Z,98827.10
2018-06-21T18:28:25.508Z,98841.59
2018-06-21T18:30:06.053Z,98877.34
2018-06-21T18:31:44.511Z,98876.86
2018-06-21T18:33:23.810Z,98847.36
2018-06-21T18:35:01.108Z,98832.77
2018-06-21T18:36:40.262Z,98836.31
2018-06-21T18:38:19.685Z,98824.80
2018-06-21T18:39:57.137Z,98823.94
2018-06-21T18:41:34.722Z,98811.30
2018-06-21T18:43:13.716Z,98744.77
2018-06-21T18:44:52.661Z,98747.83
2018-06-21T18:46:31.458Z,98757.48
2018-06-21T18:48:08.799Z,98760.94
2018-06-21T18:49:46.749Z,98682.31
2018-06-21T18:51:24.280Z,98618.52
2018-06-21T18:53:03.473Z,98499.00
2018-06-21T18:54:40.053Z,98423.02
2018-06-21T18:56:19.909Z,98346.62
2018-06-21T18:57:57.495Z,98321.09
2018-06-21T18:59:33.810Z,98297.88
2018-06-21T19:01:16.653Z,98261.10
2018-06-21T19:02:55.052Z,98295.80
2018-06-21T19:04:37.239Z,98303.61